Lihue Airport Lihue US
ICAO: PHLI
IATA:
Category: Medium
Scheduled Services:

Elevation: 153 ft
TransAlt. 18000 ft.

Airport Communications:
ATIS:127.2
HONOLULU CNTR:126.5
CTAF:118.9
GND:121.9
HONOLULU:122.6
TWR:118.9

PHLI Zoom In..

If you have problems with the map follow the link
https://www.worldairports.se/pages/airport.php?
ICAO=PHLI

Runways:

(A) RW 03 length 6500 ft width 150 ft
---- / hdg 34

(B) RW 17 length 6500 ft width 150 ft
---- / hdg 169

(C) RW 21 length 6500 ft width 150 ft
---- / hdg 214

(D) RW 35 length 6500 ft width 150 ft
ILS 110.90 / hdg 349

Location; PHLI
Day. 05 / Time. 21.53 Zulu
* Altimeter: 30.00
* Temperature: 25° c. 77°f.
* Wind from: 060° Speed 13 kn.
Dewpoint: 20° c.
Visibility: 10 Statute Miles.
Clouds: Few 2600 ft.
Clouds: Broken 3500 ft.
Clouds: Overcast 4700 ft.

PHLI 052153Z 06013KT 10SM FEW026 BKN035 OVC047 25/20 A3000 RMK AO2 SLP156 T02500200


Wind From 060°
Speed 13 kn.

 
 
jpsmedia worldairports.se 2019   terms of use